createdAt,value
2019-01-29T00:00:35.584Z,2.89
2019-01-29T00:01:35.564Z,2.87
2019-01-29T00:02:35.532Z,2.90
2019-01-29T00:03:35.444Z,2.85
2019-01-29T00:04:35.392Z,2.87
2019-01-29T00:05:35.342Z,2.95
2019-01-29T00:06:35.308Z,2.92
2019-01-29T00:07:35.293Z,2.87
2019-01-29T00:08:35.221Z,2.95
2019-01-29T00:09:35.171Z,2.87
2019-01-29T00:10:35.131Z,2.92
2019-01-29T00:11:35.074Z,2.89
2019-01-29T00:12:35.049Z,2.92
2019-01-29T00:13:34.982Z,2.93
2019-01-29T00:14:34.945Z,2.85
2019-01-29T00:15:34.893Z,2.85
2019-01-29T00:16:34.844Z,2.93
2019-01-29T00:17:34.818Z,2.84
2019-01-29T00:18:34.752Z,2.84
2019-01-29T00:19:34.709Z,2.87
2019-01-29T00:20:34.660Z,2.89
2019-01-29T00:21:34.628Z,2.82
2019-01-29T00:22:34.592Z,2.92
2019-01-29T00:23:34.532Z,2.92
2019-01-29T00:24:34.496Z,2.89
2019-01-29T00:25:34.419Z,2.92
2019-01-29T00:26:34.381Z,2.90
2019-01-29T00:27:34.339Z,2.92
2019-01-29T00:28:34.284Z,2.87
2019-01-29T00:29:34.273Z,2.89
2019-01-29T00:30:34.180Z,2.84
2019-01-29T00:31:34.139Z,2.93
2019-01-29T00:32:34.100Z,2.87
2019-01-29T00:33:34.055Z,2.81
2019-01-29T00:34:34.027Z,2.89
2019-01-29T00:35:33.957Z,2.82
2019-01-29T00:36:33.912Z,2.84
2019-01-29T00:37:33.872Z,2.81
2019-01-29T00:38:33.824Z,2.78
2019-01-29T00:39:33.775Z,2.79
2019-01-29T00:40:33.761Z,2.77
2019-01-29T00:41:33.682Z,2.78
2019-01-29T00:42:33.621Z,2.82
2019-01-29T00:43:33.593Z,2.82
2019-01-29T00:44:33.537Z,2.81
2019-01-29T00:45:33.515Z,2.87
2019-01-29T00:46:33.447Z,2.78
2019-01-29T00:47:33.399Z,2.85
2019-01-29T00:48:33.343Z,2.85
2019-01-29T00:49:33.306Z,2.84
2019-01-29T00:50:33.281Z,2.82
2019-01-29T00:51:33.210Z,2.84
2019-01-29T00:52:41.626Z,2.79
2019-01-29T00:53:33.123Z,2.85
2019-01-29T00:54:33.076Z,2.89
2019-01-29T00:55:33.048Z,2.82
2019-01-29T00:56:32.970Z,2.78
2019-01-29T00:57:32.921Z,2.84
2019-01-29T00:58:32.899Z,2.81
2019-01-29T00:59:32.835Z,2.89
2019-01-29T01:00:32.820Z,2.75
2019-01-29T01:01:32.746Z,2.82
2019-01-29T01:02:32.696Z,2.79
2019-01-29T01:03:32.653Z,2.78
2019-01-29T01:04:32.613Z,2.74
2019-01-29T01:05:32.573Z,2.77
2019-01-29T01:06:32.529Z,2.78
2019-01-29T01:07:32.490Z,2.71
2019-01-29T01:08:32.414Z,2.75
2019-01-29T01:09:32.369Z,2.74
2019-01-29T01:10:32.359Z,2.72
2019-01-29T01:11:32.289Z,2.72
2019-01-29T01:12:32.266Z,2.74
2019-01-29T01:13:32.201Z,2.72
2019-01-29T01:14:32.147Z,2.79
2019-01-29T01:15:32.112Z,2.77
2019-01-29T01:16:32.062Z,2.77
2019-01-29T01:17:32.007Z,2.77
2019-01-29T01:18:31.991Z,2.78
2019-01-29T01:19:31.916Z,2.78
2019-01-29T01:20:31.866Z,2.81
2019-01-29T01:21:31.810Z,2.78
2019-01-29T01:22:31.785Z,2.87
2019-01-29T01:23:31.757Z,2.84
2019-01-29T01:24:31.712Z,2.87
2019-01-29T01:25:31.667Z,2.85
2019-01-29T01:26:31.617Z,2.84
2019-01-29T01:27:31.544Z,2.77
2019-01-29T01:28:31.484Z,2.81
2019-01-29T01:29:31.444Z,2.87
2019-01-29T01:30:31.498Z,2.82
2019-01-29T01:31:31.363Z,2.89
2019-01-29T01:32:31.313Z,2.85
2019-01-29T01:33:31.274Z,2.96
2019-01-29T01:34:31.210Z,2.93
2019-01-29T01:35:31.193Z,2.90
2019-01-29T01:36:31.157Z,2.84
2019-01-29T01:37:31.110Z,2.87
2019-01-29T01:38:31.036Z,2.89
2019-01-29T01:39:30.974Z,2.95
2019-01-29T01:40:30.932Z,2.95
2019-01-29T01:41:30.904Z,2.90
2019-01-29T01:42:30.853Z,2.93
2019-01-29T01:43:30.804Z,2.93
2019-01-29T01:44:30.751Z,2.85
2019-01-29T01:45:30.711Z,2.90
2019-01-29T01:46:30.676Z,2.95
2019-01-29T01:47:30.631Z,2.85
2019-01-29T01:48:30.576Z,2.85
2019-01-29T01:49:30.518Z,2.89
2019-01-29T01:50:30.489Z,2.89
2019-01-29T01:51:30.424Z,2.90
2019-01-29T01:52:30.371Z,2.87
2019-01-29T01:53:30.363Z,2.96
2019-01-29T01:54:30.287Z,2.89
2019-01-29T01:55:30.263Z,2.89
2019-01-29T01:56:30.205Z,2.84
2019-01-29T01:57:30.146Z,2.93
2019-01-29T01:58:30.141Z,2.89
2019-01-29T01:59:30.041Z,2.89
2019-01-29T02:00:30.003Z,2.92
2019-01-29T02:01:29.965Z,2.90
2019-01-29T02:02:29.962Z,2.96
2019-01-29T02:03:29.881Z,2.84
2019-01-29T02:04:29.845Z,2.93
2019-01-29T02:05:29.786Z,2.89
2019-01-29T02:06:29.752Z,2.89
2019-01-29T02:07:29.681Z,2.85
2019-01-29T02:08:29.640Z,2.84
2019-01-29T02:09:29.618Z,2.82
2019-01-29T02:10:29.559Z,2.82
2019-01-29T02:11:29.494Z,2.82
2019-01-29T02:12:29.493Z,2.87
2019-01-29T02:13:29.421Z,2.82
2019-01-29T02:14:29.395Z,2.81
2019-01-29T02:15:29.316Z,2.82
2019-01-29T02:16:29.268Z,2.87
2019-01-29T02:17:29.230Z,2.84
2019-01-29T02:18:29.196Z,2.85
2019-01-29T02:19:29.123Z,2.79
2019-01-29T02:20:29.071Z,2.82
2019-01-29T02:21:29.029Z,2.79
2019-01-29T02:22:28.992Z,2.79
2019-01-29T02:23:28.985Z,2.84
2019-01-29T02:24:28.892Z,2.84
2019-01-29T02:25:28.880Z,2.79
2019-01-29T02:26:28.807Z,2.78
2019-01-29T02:27:28.760Z,2.74
2019-01-29T02:28:28.711Z,2.78
2019-01-29T02:29:28.660Z,2.90
2019-01-29T02:30:28.621Z,2.82
2019-01-29T02:31:28.591Z,2.75
2019-01-29T02:32:28.519Z,2.82
2019-01-29T02:33:28.520Z,2.84
2019-01-29T02:34:28.446Z,2.81
2019-01-29T02:35:28.390Z,2.85
2019-01-29T02:36:28.371Z,2.84
2019-01-29T02:37:28.317Z,2.85
2019-01-29T02:38:28.245Z,2.87
2019-01-29T02:39:28.230Z,2.81
2019-01-29T02:40:28.156Z,2.82
2019-01-29T02:41:28.124Z,2.84
2019-01-29T02:42:28.068Z,2.78
2019-01-29T02:43:28.039Z,2.82
2019-01-29T02:44:27.990Z,2.82
2019-01-29T02:45:27.911Z,2.78
2019-01-29T02:46:27.873Z,2.81
2019-01-29T02:47:27.834Z,2.79
2019-01-29T02:48:27.808Z,2.84
2019-01-29T02:49:27.738Z,2.81
2019-01-29T02:50:27.710Z,2.87
2019-01-29T02:51:27.644Z,2.82
2019-01-29T02:52:27.605Z,2.78
2019-01-29T02:53:27.549Z,2.77
2019-01-29T02:54:27.518Z,2.78
2019-01-29T02:55:27.484Z,2.79
2019-01-29T02:56:27.422Z,2.71
2019-01-29T02:57:27.351Z,2.72
2019-01-29T02:58:27.323Z,2.75
2019-01-29T02:59:27.268Z,2.78
2019-01-29T03:00:27.250Z,2.74
2019-01-29T03:01:27.214Z,2.77
2019-01-29T03:02:27.131Z,2.81
2019-01-29T03:03:27.081Z,2.74
2019-01-29T03:04:27.030Z,2.75
2019-01-29T03:05:26.985Z,2.81
2019-01-29T03:06:26.973Z,2.77
2019-01-29T03:07:26.911Z,2.74
2019-01-29T03:08:26.960Z,2.84
2019-01-29T03:09:26.811Z,2.71
2019-01-29T03:10:26.770Z,2.72
2019-01-29T03:11:26.735Z,2.84
2019-01-29T03:12:26.671Z,2.82
2019-01-29T03:13:26.659Z,2.81
2019-01-29T03:14:26.571Z,2.82
2019-01-29T03:15:26.551Z,2.81
2019-01-29T03:16:26.498Z,2.71
2019-01-29T03:17:26.430Z,2.77
2019-01-29T03:18:26.410Z,2.69
2019-01-29T03:19:26.358Z,2.69
2019-01-29T03:20:26.298Z,2.67
2019-01-29T03:21:26.275Z,2.71
2019-01-29T03:22:26.211Z,2.77
2019-01-29T03:23:27.424Z,2.71
2019-01-29T03:24:26.131Z,2.72
2019-01-29T03:25:26.064Z,2.72
2019-01-29T03:26:26.037Z,2.72
2019-01-29T03:27:25.971Z,2.72
2019-01-29T03:28:25.926Z,2.69
2019-01-29T03:29:25.895Z,2.69
2019-01-29T03:30:25.856Z,2.72
2019-01-29T03:31:25.809Z,2.71
2019-01-29T03:32:25.755Z,2.72
2019-01-29T03:33:25.705Z,2.66
2019-01-29T03:34:25.693Z,2.69
2019-01-29T03:35:25.605Z,2.75
2019-01-29T03:36:25.830Z,2.72
2019-01-29T03:37:25.510Z,2.72
2019-01-29T03:38:25.456Z,2.64
2019-01-29T03:39:25.426Z,2.66
2019-01-29T03:40:25.421Z,2.71
2019-01-29T03:41:25.391Z,2.72
2019-01-29T03:42:25.287Z,2.77
2019-01-29T03:43:25.236Z,2.74
2019-01-29T03:44:25.188Z,2.72
2019-01-29T03:45:25.162Z,2.72
2019-01-29T03:46:25.124Z,2.77
2019-01-29T03:47:25.049Z,2.74
2019-01-29T03:48:24.991Z,2.75
2019-01-29T03:49:24.967Z,2.77
2019-01-29T03:50:24.916Z,2.77
2019-01-29T03:51:24.905Z,2.74
2019-01-29T03:52:24.893Z,2.78
2019-01-29T03:53:24.797Z,2.72
2019-01-29T03:54:24.722Z,2.78
2019-01-29T03:55:24.693Z,2.74
2019-01-29T03:56:24.655Z,2.77
2019-01-29T03:57:24.630Z,2.74
2019-01-29T03:58:24.571Z,2.75
2019-01-29T03:59:24.539Z,2.82
2019-01-29T04:00:24.448Z,2.75
2019-01-29T04:01:24.433Z,2.78
2019-01-29T04:02:24.362Z,2.77
2019-01-29T04:03:24.305Z,2.87
2019-01-29T04:04:24.260Z,2.77
2019-01-29T04:05:24.220Z,2.84
2019-01-29T04:06:24.178Z,2.89
2019-01-29T04:07:24.169Z,2.82
2019-01-29T04:08:24.065Z,2.82
2019-01-29T04:09:24.051Z,2.84
2019-01-29T04:10:23.998Z,2.85
2019-01-29T04:11:23.932Z,2.77
2019-01-29T04:12:23.935Z,2.81
2019-01-29T04:13:23.860Z,2.78
2019-01-29T04:14:23.792Z,2.85
2019-01-29T04:15:23.765Z,2.81
2019-01-29T04:16:23.707Z,2.87
2019-01-29T04:17:23.670Z,2.87
2019-01-29T04:18:23.653Z,2.85
2019-01-29T04:19:23.558Z,2.81
2019-01-29T04:20:23.545Z,2.79
2019-01-29T04:21:23.479Z,2.84
2019-01-29T04:22:23.465Z,2.81
2019-01-29T04:23:23.398Z,2.87
2019-01-29T04:24:23.349Z,2.82
2019-01-29T04:25:23.280Z,2.82
2019-01-29T04:26:23.255Z,2.78
2019-01-29T04:27:23.178Z,2.81
2019-01-29T04:28:23.174Z,2.82
2019-01-29T04:29:23.088Z,2.82
2019-01-29T04:30:23.062Z,2.81
2019-01-29T04:31:23.042Z,2.79
2019-01-29T04:32:22.957Z,2.81
2019-01-29T04:33:22.911Z,2.89
2019-01-29T04:34:22.907Z,2.85
2019-01-29T04:35:22.829Z,2.82
2019-01-29T04:36:22.812Z,2.84
2019-01-29T04:37:22.758Z,2.71
2019-01-29T04:38:22.681Z,2.72
2019-01-29T04:39:22.648Z,2.72
2019-01-29T04:40:22.581Z,2.74
2019-01-29T04:41:22.537Z,2.82
2019-01-29T04:42:22.489Z,2.77
2019-01-29T04:43:22.481Z,2.74
2019-01-29T04:44:22.440Z,2.72
2019-01-29T04:45:22.373Z,2.72
2019-01-29T04:46:22.327Z,2.77
2019-01-29T04:47:22.267Z,2.72
2019-01-29T04:48:22.227Z,2.75
2019-01-29T04:49:22.171Z,2.67
2019-01-29T04:50:22.153Z,2.72
2019-01-29T04:51:22.070Z,2.74
2019-01-29T04:52:22.026Z,2.77
2019-01-29T04:53:21.980Z,2.71
2019-01-29T04:54:21.959Z,2.72
2019-01-29T04:55:21.923Z,2.77
2019-01-29T04:56:21.840Z,2.78
2019-01-29T04:57:21.798Z,2.72
2019-01-29T04:58:21.744Z,2.71
2019-01-29T04:59:21.692Z,2.75
2019-01-29T05:00:21.690Z,2.64
2019-01-29T05:01:21.615Z,2.64
2019-01-29T05:02:21.588Z,2.66
2019-01-29T05:03:21.547Z,2.63
2019-01-29T05:04:21.472Z,2.57
2019-01-29T05:05:21.422Z,2.53
2019-01-29T05:06:21.427Z,2.66
2019-01-29T05:07:21.349Z,2.49
2019-01-29T05:08:21.304Z,2.56
2019-01-29T05:09:21.246Z,2.54
2019-01-29T05:10:21.216Z,2.46
2019-01-29T05:11:21.176Z,2.57
2019-01-29T05:12:21.105Z,2.56
2019-01-29T05:13:21.078Z,2.45
2019-01-29T05:14:21.009Z,2.54
2019-01-29T05:15:20.986Z,2.48
2019-01-29T05:16:20.962Z,2.45
2019-01-29T05:17:20.873Z,2.45
2019-01-29T05:18:20.834Z,2.57
2019-01-29T05:19:20.785Z,2.52
2019-01-29T05:20:20.742Z,2.45
2019-01-29T05:21:20.731Z,2.49
2019-01-29T05:22:20.638Z,2.48
2019-01-29T05:23:20.589Z,2.52
2019-01-29T05:24:20.552Z,2.46
2019-01-29T05:25:20.512Z,2.49
2019-01-29T05:26:20.456Z,2.48
2019-01-29T05:27:20.432Z,2.45
2019-01-29T05:28:20.399Z,2.48
2019-01-29T05:29:20.351Z,2.49
2019-01-29T05:30:20.756Z,2.45
2019-01-29T05:31:20.215Z,2.52
2019-01-29T05:32:20.212Z,2.43
2019-01-29T05:33:20.152Z,2.45
2019-01-29T05:34:20.089Z,2.49
2019-01-29T05:35:20.068Z,2.46
2019-01-29T05:36:19.996Z,2.45
2019-01-29T05:37:19.960Z,2.45
2019-01-29T05:38:19.900Z,2.52
2019-01-29T05:39:19.854Z,2.54
2019-01-29T05:40:19.811Z,2.49
2019-01-29T05:41:19.756Z,2.60
2019-01-29T05:42:19.736Z,2.54
2019-01-29T05:43:19.655Z,2.49
2019-01-29T05:44:19.627Z,2.61
2019-01-29T05:45:19.566Z,2.54
2019-01-29T05:46:19.534Z,2.56
2019-01-29T05:47:19.483Z,2.61
2019-01-29T05:48:19.461Z,2.52
2019-01-29T05:49:19.418Z,2.53
2019-01-29T05:50:19.339Z,2.56
2019-01-29T05:51:19.277Z,2.52
2019-01-29T05:52:19.274Z,2.54
2019-01-29T05:53:19.193Z,2.46
2019-01-29T05:54:19.184Z,2.54
2019-01-29T05:55:19.095Z,2.46
2019-01-29T05:56:19.042Z,2.52
2019-01-29T05:57:19.002Z,2.57
2019-01-29T05:58:18.960Z,2.57
2019-01-29T05:59:18.924Z,2.54
2019-01-29T06:00:18.906Z,2.61
2019-01-29T06:01:18.836Z,2.60
2019-01-29T06:02:18.779Z,2.60
2019-01-29T06:03:18.763Z,2.60
2019-01-29T06:04:18.688Z,2.59
2019-01-29T06:05:18.666Z,2.57
2019-01-29T06:06:18.609Z,2.63
2019-01-29T06:07:18.559Z,2.67
2019-01-29T06:08:18.488Z,2.66
2019-01-29T06:09:18.483Z,2.64
2019-01-29T06:10:18.411Z,2.66
2019-01-29T06:11:18.369Z,2.67
2019-01-29T06:12:18.322Z,2.66
2019-01-29T06:13:18.309Z,2.67
2019-01-29T06:14:18.262Z,2.63
2019-01-29T06:15:18.174Z,2.63
2019-01-29T06:16:18.116Z,2.66
2019-01-29T06:17:18.084Z,2.64
2019-01-29T06:18:18.035Z,2.63
2019-01-29T06:19:18.014Z,2.64
2019-01-29T06:20:18.568Z,2.66
2019-01-29T06:21:17.914Z,2.63
2019-01-29T06:22:17.827Z,2.60
2019-01-29T06:23:17.831Z,2.72
2019-01-29T06:24:25.492Z,2.67
2019-01-29T06:25:17.716Z,2.64
2019-01-29T06:26:17.665Z,2.69
2019-01-29T06:27:17.610Z,2.72
2019-01-29T06:28:17.588Z,2.72
2019-01-29T06:29:17.543Z,2.67
2019-01-29T06:30:17.507Z,2.64
2019-01-29T06:31:17.454Z,2.61
2019-01-29T06:32:17.391Z,2.67
2019-01-29T06:33:17.371Z,2.67
2019-01-29T06:34:17.293Z,2.66
2019-01-29T06:35:17.246Z,2.63
2019-01-29T06:36:17.200Z,2.66
2019-01-29T06:37:17.154Z,2.69
2019-01-29T06:38:17.140Z,2.63
2019-01-29T06:39:17.049Z,2.63
2019-01-29T06:40:16.991Z,2.69
2019-01-29T06:41:16.977Z,2.71
2019-01-29T06:42:16.930Z,2.64
2019-01-29T06:43:16.909Z,2.64
2019-01-29T06:44:16.831Z,2.71
2019-01-29T06:45:16.848Z,2.79
2019-01-29T06:46:16.741Z,2.72
2019-01-29T06:47:16.716Z,2.75
2019-01-29T06:48:16.630Z,2.69
2019-01-29T06:49:16.583Z,3.06
2019-01-29T06:50:16.543Z,3.73
2019-01-29T06:51:16.518Z,3.88
2019-01-29T06:52:16.471Z,3.72
2019-01-29T06:53:16.412Z,3.76
2019-01-29T06:54:16.369Z,3.86
2019-01-29T06:55:16.327Z,3.75
2019-01-29T06:56:16.325Z,3.91
2019-01-29T06:57:16.249Z,3.84
2019-01-29T06:58:16.223Z,3.94
2019-01-29T06:59:16.164Z,4.04
2019-01-29T07:00:16.085Z,3.88
2019-01-29T07:01:16.042Z,4.12
2019-01-29T07:02:16.011Z,4.18
2019-01-29T07:03:15.978Z,4.12
2019-01-29T07:04:15.905Z,4.22
2019-01-29T07:05:15.871Z,4.23
2019-01-29T07:06:15.811Z,4.06
2019-01-29T07:07:15.781Z,3.98
2019-01-29T07:08:15.741Z,3.91
2019-01-29T07:09:15.695Z,3.96
2019-01-29T07:10:15.639Z,4.02
2019-01-29T07:11:15.585Z,4.00
2019-01-29T07:12:15.553Z,3.97
2019-01-29T07:13:15.567Z,4.20
2019-01-29T07:14:15.430Z,4.12
2019-01-29T07:15:15.386Z,4.18
2019-01-29T07:16:15.344Z,4.12
2019-01-29T07:17:15.308Z,4.05
2019-01-29T07:18:15.393Z,3.93
2019-01-29T07:19:15.462Z,3.70
2019-01-29T07:20:15.317Z,3.87
2019-01-29T07:21:15.168Z,3.80
2019-01-29T07:22:15.076Z,3.90
2019-01-29T07:23:15.438Z,3.80
2019-01-29T07:24:14.997Z,3.69
2019-01-29T07:25:14.923Z,3.70
2019-01-29T07:26:14.866Z,3.57
2019-01-29T07:27:14.837Z,3.48
2019-01-29T07:28:14.821Z,3.36
2019-01-29T07:29:14.760Z,3.36
2019-01-29T07:30:14.696Z,3.33
2019-01-29T07:31:14.647Z,3.31
2019-01-29T07:32:14.605Z,3.29
2019-01-29T07:33:14.565Z,3.23
2019-01-29T07:34:14.541Z,3.21
2019-01-29T07:35:14.464Z,3.10
2019-01-29T07:36:14.413Z,3.03
2019-01-29T07:37:21.847Z,3.11
2019-01-29T07:38:14.366Z,3.05
2019-01-29T07:39:14.312Z,3.03
2019-01-29T07:40:14.335Z,3.03
2019-01-29T07:41:14.192Z,2.97
2019-01-29T07:42:14.148Z,3.05
2019-01-29T07:43:14.107Z,3.06
2019-01-29T07:44:14.097Z,3.05
2019-01-29T07:45:13.999Z,3.05
2019-01-29T07:46:13.982Z,3.08
2019-01-29T07:47:13.916Z,3.02
2019-01-29T07:48:13.894Z,3.08
2019-01-29T07:49:13.850Z,3.08
2019-01-29T07:50:13.813Z,3.14
2019-01-29T07:51:13.748Z,3.11
2019-01-29T07:52:13.676Z,3.03
2019-01-29T07:53:13.645Z,3.08
2019-01-29T07:54:13.620Z,3.10
2019-01-29T07:55:13.571Z,3.08
2019-01-29T07:56:13.501Z,3.08
2019-01-29T07:57:13.475Z,3.06
2019-01-29T07:58:13.401Z,3.21
2019-01-29T07:59:13.345Z,3.13
2019-01-29T08:00:13.317Z,3.18
2019-01-29T08:01:13.301Z,3.28
2019-01-29T08:02:13.216Z,3.20
2019-01-29T08:03:13.184Z,3.24
2019-01-29T08:04:13.148Z,3.17
2019-01-29T08:05:13.116Z,3.24
2019-01-29T08:06:13.061Z,3.26
2019-01-29T08:07:12.997Z,3.24
2019-01-29T08:08:12.960Z,3.21
2019-01-29T08:09:12.911Z,3.24
2019-01-29T08:10:12.847Z,3.28
2019-01-29T08:11:12.827Z,3.36
2019-01-29T08:12:12.790Z,3.29
2019-01-29T08:13:12.741Z,3.26
2019-01-29T08:14:12.673Z,3.29
2019-01-29T08:15:12.656Z,3.23
2019-01-29T08:16:12.605Z,3.26
2019-01-29T08:17:12.543Z,3.21
2019-01-29T08:18:12.488Z,3.18
2019-01-29T08:19:12.455Z,3.21
2019-01-29T08:20:12.403Z,3.21
2019-01-29T08:21:12.373Z,3.29
2019-01-29T08:22:12.309Z,3.28
2019-01-29T08:23:12.272Z,3.29
2019-01-29T08:24:12.208Z,3.26
2019-01-29T08:25:12.190Z,3.35
2019-01-29T08:26:12.172Z,3.36
2019-01-29T08:27:12.111Z,3.36
2019-01-29T08:28:12.031Z,3.42
2019-01-29T08:29:11.980Z,3.35
2019-01-29T08:30:11.935Z,3.29
2019-01-29T08:31:11.882Z,3.33
2019-01-29T08:32:11.875Z,3.39
2019-01-29T08:33:11.814Z,3.36
2019-01-29T08:34:11.768Z,3.42
2019-01-29T08:35:11.700Z,3.48
2019-01-29T08:36:11.676Z,3.48
2019-01-29T08:37:11.627Z,3.51
2019-01-29T08:38:11.612Z,3.50
2019-01-29T08:39:11.524Z,3.40
2019-01-29T08:40:11.475Z,3.43
2019-01-29T08:41:11.430Z,3.47
2019-01-29T08:42:11.409Z,3.58
2019-01-29T08:43:11.374Z,3.48
2019-01-29T08:44:11.285Z,3.57
2019-01-29T08:45:11.254Z,3.61
2019-01-29T08:46:11.214Z,3.61
2019-01-29T08:47:11.193Z,3.76
2019-01-29T08:48:11.127Z,3.78
2019-01-29T08:49:11.067Z,3.86
2019-01-29T08:50:11.028Z,3.86
2019-01-29T08:51:11.001Z,3.84
2019-01-29T08:52:11.690Z,3.84
2019-01-29T08:53:10.922Z,3.83
2019-01-29T08:54:10.849Z,3.79
2019-01-29T08:55:11.130Z,3.83
2019-01-29T08:56:10.750Z,3.93
2019-01-29T08:57:10.718Z,4.00
2019-01-29T08:58:11.532Z,4.00
2019-01-29T08:59:10.622Z,4.02
2019-01-29T09:00:10.582Z,3.98
2019-01-29T09:01:10.545Z,3.93
2019-01-29T09:02:10.484Z,3.98
2019-01-29T09:03:10.447Z,3.91
2019-01-29T09:04:10.422Z,4.04
2019-01-29T09:05:10.351Z,4.04
2019-01-29T09:06:10.294Z,3.94
2019-01-29T09:07:10.278Z,3.94
2019-01-29T09:08:10.251Z,4.00
2019-01-29T09:09:10.185Z,4.05
2019-01-29T09:10:10.169Z,3.90
2019-01-29T09:11:10.080Z,4.02
2019-01-29T09:12:10.036Z,4.00
2019-01-29T09:13:09.988Z,4.02
2019-01-29T09:14:09.959Z,4.14
2019-01-29T09:15:09.935Z,4.02
2019-01-29T09:16:09.843Z,4.00
2019-01-29T09:17:09.822Z,3.98
2019-01-29T09:18:09.763Z,3.93
2019-01-29T09:19:09.721Z,4.08
2019-01-29T09:20:09.709Z,3.98
2019-01-29T09:21:09.630Z,4.00
2019-01-29T09:22:09.590Z,4.04
2019-01-29T09:23:09.579Z,4.00
2019-01-29T09:24:09.513Z,4.06
2019-01-29T09:25:09.458Z,4.00
2019-01-29T09:26:09.406Z,4.05
2019-01-29T09:27:09.370Z,4.02
2019-01-29T09:28:09.314Z,4.04
2019-01-29T09:29:18.406Z,4.00
2019-01-29T09:30:09.231Z,4.02
2019-01-29T09:31:18.408Z,4.22
2019-01-29T09:32:09.119Z,4.16
2019-01-29T09:33:09.069Z,4.29
2019-01-29T09:34:09.019Z,4.29
2019-01-29T09:35:17.956Z,4.40
2019-01-29T09:36:17.983Z,4.54
2019-01-29T09:37:18.013Z,4.69
2019-01-29T09:38:08.834Z,5.00
2019-01-29T09:39:08.792Z,5.21
2019-01-29T09:40:08.749Z,5.49
2019-01-29T09:41:08.733Z,5.72
2019-01-29T09:42:08.659Z,5.60
2019-01-29T09:43:08.608Z,5.46
2019-01-29T09:44:08.573Z,5.38
2019-01-29T09:45:08.530Z,5.20
2019-01-29T09:46:08.511Z,5.17
2019-01-29T09:47:08.440Z,5.25
2019-01-29T09:48:08.387Z,5.06
2019-01-29T09:49:08.342Z,4.84
2019-01-29T09:50:08.300Z,4.73
2019-01-29T09:51:08.253Z,4.78
2019-01-29T09:52:08.250Z,4.65
2019-01-29T09:53:08.172Z,4.55
2019-01-29T09:54:08.126Z,4.58
2019-01-29T09:55:08.085Z,4.59
2019-01-29T09:56:08.047Z,4.60
2019-01-29T09:57:07.989Z,4.67
2019-01-29T09:58:07.982Z,4.66
2019-01-29T09:59:07.908Z,4.72
2019-01-29T10:00:07.859Z,4.69
2019-01-29T10:01:07.809Z,4.69
2019-01-29T10:02:07.797Z,4.72
2019-01-29T10:03:07.748Z,4.75
2019-01-29T10:04:07.690Z,4.77
2019-01-29T10:05:07.636Z,4.84
2019-01-29T10:06:07.604Z,4.88
2019-01-29T10:07:07.551Z,5.04
2019-01-29T10:08:07.529Z,5.12
2019-01-29T10:09:07.458Z,5.21
2019-01-29T10:10:07.418Z,5.36
2019-01-29T10:11:07.369Z,5.40
2019-01-29T10:12:07.334Z,5.42
2019-01-29T10:13:07.290Z,5.33
2019-01-29T10:14:07.261Z,5.38
2019-01-29T10:15:07.189Z,5.28
2019-01-29T10:16:07.155Z,5.25
2019-01-29T10:17:07.111Z,5.03
2019-01-29T10:18:07.129Z,5.13
2019-01-29T10:19:07.045Z,5.00
2019-01-29T10:20:06.977Z,4.91
2019-01-29T10:21:06.930Z,4.84
2019-01-29T10:22:06.890Z,4.85
2019-01-29T10:23:06.836Z,4.88
2019-01-29T10:24:06.826Z,5.03
2019-01-29T10:25:06.758Z,5.06
2019-01-29T10:26:06.749Z,5.15
2019-01-29T10:27:06.668Z,5.18
2019-01-29T10:28:06.730Z,5.39
2019-01-29T10:29:06.600Z,5.58
2019-01-29T10:30:06.539Z,5.91
2019-01-29T10:31:06.491Z,6.17
2019-01-29T10:32:06.444Z,6.44
2019-01-29T10:33:06.403Z,6.70
2019-01-29T10:34:06.381Z,7.02
2019-01-29T10:35:06.319Z,7.07
2019-01-29T10:36:06.277Z,7.60
2019-01-29T10:37:06.233Z,7.58
2019-01-29T10:38:06.185Z,7.40
2019-01-29T10:39:06.167Z,7.92
2019-01-29T10:40:06.104Z,7.82
2019-01-29T10:41:06.065Z,7.42
2019-01-29T10:42:06.075Z,6.91
2019-01-29T10:43:06.006Z,6.89
2019-01-29T10:44:05.935Z,6.88
2019-01-29T10:45:05.888Z,6.73
2019-01-29T10:46:05.857Z,6.38
2019-01-29T10:47:05.835Z,6.18
2019-01-29T10:48:05.763Z,6.12
2019-01-29T10:49:05.765Z,6.14
2019-01-29T10:50:05.679Z,6.08
2019-01-29T10:51:05.636Z,6.36
2019-01-29T10:52:05.627Z,6.61
2019-01-29T10:53:05.556Z,6.49
2019-01-29T10:54:05.520Z,6.54
2019-01-29T10:55:05.476Z,6.58
2019-01-29T10:56:05.424Z,6.85
2019-01-29T10:57:05.408Z,7.05
2019-01-29T10:58:05.346Z,7.16
2019-01-29T10:59:05.299Z,7.12
2019-01-29T11:00:05.286Z,6.92
2019-01-29T11:01:05.223Z,6.95
2019-01-29T11:02:05.173Z,6.66
2019-01-29T11:03:05.137Z,6.87
2019-01-29T11:04:05.392Z,7.09
2019-01-29T11:05:05.075Z,6.97
2019-01-29T11:06:05.015Z,6.79
2019-01-29T11:07:04.995Z,6.44
2019-01-29T11:08:04.928Z,6.38
2019-01-29T11:09:04.882Z,6.33
2019-01-29T11:10:04.865Z,6.18
2019-01-29T11:11:04.801Z,6.55
2019-01-29T11:12:04.809Z,6.66
2019-01-29T11:13:04.720Z,6.48
2019-01-29T11:14:04.675Z,6.33
2019-01-29T11:15:04.649Z,6.25
2019-01-29T11:16:04.590Z,6.18
2019-01-29T11:17:04.569Z,6.08
2019-01-29T11:18:04.515Z,5.99
2019-01-29T11:19:04.469Z,5.86
2019-01-29T11:20:04.422Z,5.81
2019-01-29T11:21:04.407Z,5.68
2019-01-29T11:22:04.330Z,5.72
2019-01-29T11:23:04.303Z,5.72
2019-01-29T11:24:04.277Z,5.49
2019-01-29T11:25:04.209Z,5.42
2019-01-29T11:26:04.191Z,5.42
2019-01-29T11:27:04.149Z,5.46
2019-01-29T11:28:04.077Z,5.36
2019-01-29T11:29:04.036Z,5.35
2019-01-29T11:30:03.987Z,5.33
2019-01-29T11:31:03.965Z,5.79
2019-01-29T11:32:03.908Z,6.08
2019-01-29T11:33:03.873Z,6.00
2019-01-29T11:34:03.819Z,6.03
2019-01-29T11:35:03.773Z,6.27
2019-01-29T11:36:03.759Z,6.66
2019-01-29T11:37:03.690Z,6.38
2019-01-29T11:38:03.648Z,6.49
2019-01-29T11:39:03.613Z,6.73
2019-01-29T11:40:03.553Z,6.77
2019-01-29T11:41:03.536Z,7.09
2019-01-29T11:42:03.591Z,6.98
2019-01-29T11:43:03.433Z,6.94
2019-01-29T11:44:03.392Z,6.66
2019-01-29T11:45:03.345Z,6.49
2019-01-29T11:46:03.330Z,6.55
2019-01-29T11:47:03.260Z,6.43
2019-01-29T11:48:03.221Z,6.11
2019-01-29T11:49:03.188Z,6.03
2019-01-29T11:50:03.164Z,6.00
2019-01-29T11:51:03.120Z,5.93
2019-01-29T11:52:03.077Z,5.76
2019-01-29T11:53:03.007Z,5.72
2019-01-29T11:54:02.957Z,5.67
2019-01-29T11:55:03.053Z,5.65
2019-01-29T11:56:04.712Z,5.57
2019-01-29T11:57:02.866Z,5.61
2019-01-29T11:58:02.794Z,5.61
2019-01-29T11:59:02.748Z,5.43
2019-01-29T12:00:02.699Z,5.46
2019-01-29T12:01:04.548Z,5.40
2019-01-29T12:02:02.648Z,5.49
2019-01-29T12:03:02.570Z,5.54
2019-01-29T12:04:02.535Z,5.71
2019-01-29T12:05:02.493Z,5.68
2019-01-29T12:06:02.452Z,5.58
2019-01-29T12:07:02.424Z,5.65
2019-01-29T12:08:02.375Z,5.51
2019-01-29T12:09:02.319Z,5.57
2019-01-29T12:10:02.278Z,5.54
2019-01-29T12:11:02.227Z,5.45
2019-01-29T12:12:02.178Z,5.39
2019-01-29T12:13:02.561Z,5.40
2019-01-29T12:14:02.092Z,5.38
2019-01-29T12:15:02.051Z,5.36
2019-01-29T12:16:02.012Z,5.25
2019-01-29T12:17:01.971Z,5.36
2019-01-29T12:18:01.925Z,5.31
2019-01-29T12:19:01.913Z,5.33
2019-01-29T12:20:01.826Z,5.46
2019-01-29T12:21:01.793Z,5.46
2019-01-29T12:22:01.752Z,5.58
2019-01-29T12:23:01.711Z,5.68
2019-01-29T12:24:01.678Z,5.60
2019-01-29T12:25:01.642Z,5.75
2019-01-29T12:26:01.568Z,5.65
2019-01-29T12:27:01.527Z,5.79
2019-01-29T12:28:01.489Z,5.81
2019-01-29T12:29:01.475Z,6.01
2019-01-29T12:30:01.400Z,6.03
2019-01-29T12:31:01.356Z,6.15
2019-01-29T12:32:01.309Z,6.28
2019-01-29T12:33:01.263Z,6.36
2019-01-29T12:34:01.220Z,6.36
2019-01-29T12:35:01.201Z,6.40
2019-01-29T12:36:01.139Z,6.44
2019-01-29T12:37:01.099Z,6.55
2019-01-29T12:38:01.056Z,6.67
2019-01-29T12:39:01.004Z,6.62
2019-01-29T12:40:00.987Z,6.81
2019-01-29T12:41:00.928Z,6.99
2019-01-29T12:42:00.893Z,7.02
2019-01-29T12:43:00.846Z,6.87
2019-01-29T12:44:00.793Z,6.88
2019-01-29T12:45:00.799Z,6.80
2019-01-29T12:46:00.712Z,6.71
2019-01-29T12:47:00.661Z,6.77
2019-01-29T12:48:00.625Z,6.54
2019-01-29T12:49:00.584Z,6.48
2019-01-29T12:50:00.540Z,6.41
2019-01-29T12:51:00.523Z,6.43
2019-01-29T12:52:00.450Z,6.38
2019-01-29T12:53:00.436Z,6.55
2019-01-29T12:54:00.380Z,6.49
2019-01-29T12:55:00.329Z,6.69
2019-01-29T12:56:00.305Z,6.74
2019-01-29T12:57:00.244Z,6.73
2019-01-29T12:58:00.200Z,6.67
2019-01-29T12:59:00.191Z,6.67
2019-01-29T13:00:00.196Z,6.74
2019-01-29T13:01:00.079Z,6.92
2019-01-29T13:02:00.061Z,6.98
2019-01-29T13:02:59.995Z,6.97
2019-01-29T13:03:59.948Z,6.98
2019-01-29T13:04:59.913Z,6.77
2019-01-29T13:05:59.864Z,6.81
2019-01-29T13:06:59.857Z,6.77
2019-01-29T13:07:59.787Z,6.62
2019-01-29T13:08:59.742Z,6.67
2019-01-29T13:09:59.698Z,6.58
2019-01-29T13:10:59.652Z,6.59
2019-01-29T13:11:59.617Z,6.59
2019-01-29T13:12:59.603Z,6.46
2019-01-29T13:13:59.537Z,6.43
2019-01-29T13:14:59.506Z,6.44
2019-01-29T13:15:59.445Z,6.48
2019-01-29T13:16:59.398Z,6.41
2019-01-29T13:17:59.385Z,6.40